sensor_id;sensor_type;location;lat;lon;timestamp;temperature;humidity
21340;DHT22;10828;47.064;15.422;2023-05-20T00:01:58;15.40;99.90
21340;DHT22;10828;47.064;15.422;2023-05-20T00:04:26;15.50;99.90
21340;DHT22;10828;47.064;15.422;2023-05-20T00:06:52;15.40;99.90
21340;DHT22;10828;47.064;15.422;2023-05-20T00:09:19;15.40;99.90
21340;DHT22;10828;47.064;15.422;2023-05-20T00:11:46;15.50;99.90
21340;DHT22;10828;47.064;15.422;2023-05-20T00:14:16;15.50;99.90
21340;DHT22;10828;47.064;15.422;2023-05-20T00:16:42;15.50;99.90
21340;DHT22;10828;47.064;15.422;2023-05-20T00:19:08;15.40;99.90
21340;DHT22;10828;47.064;15.422;2023-05-20T00:21:33;15.30;99.90
21340;DHT22;10828;47.064;15.422;2023-05-20T00:23:59;15.30;99.90
21340;DHT22;10828;47.064;15.422;2023-05-20T00:26:25;15.30;99.90
21340;DHT22;10828;47.064;15.422;2023-05-20T00:28:51;15.30;99.90
21340;DHT22;10828;47.064;15.422;2023-05-20T00:31:16;15.30;99.90
21340;DHT22;10828;47.064;15.422;2023-05-20T00:33:43;15.30;99.90
21340;DHT22;10828;47.064;15.422;2023-05-20T00:36:10;15.20;99.90
21340;DHT22;10828;47.064;15.422;2023-05-20T00:38:36;15.30;99.90
21340;DHT22;10828;47.064;15.422;2023-05-20T00:41:02;15.40;99.90
21340;DHT22;10828;47.064;15.422;2023-05-20T00:43:30;15.30;99.90
21340;DHT22;10828;47.064;15.422;2023-05-20T00:45:55;15.30;99.90
21340;DHT22;10828;47.064;15.422;2023-05-20T00:48:21;15.20;99.90
21340;DHT22;10828;47.064;15.422;2023-05-20T00:50:48;15.20;99.90
21340;DHT22;10828;47.064;15.422;2023-05-20T00:53:16;15.20;99.90
21340;DHT22;10828;47.064;15.422;2023-05-20T00:55:43;15.20;99.90
21340;DHT22;10828;47.064;15.422;2023-05-20T00:58:09;15.20;99.90
21340;DHT22;10828;47.064;15.422;2023-05-20T01:00:35;15.10;99.90
21340;DHT22;10828;47.064;15.422;2023-05-20T01:03:00;15.20;99.90
21340;DHT22;10828;47.064;15.422;2023-05-20T01:05:26;15.20;99.90
21340;DHT22;10828;47.064;15.422;2023-05-20T01:07:52;15.20;99.90
21340;DHT22;10828;47.064;15.422;2023-05-20T01:10:18;15.20;99.90
21340;DHT22;10828;47.064;15.422;2023-05-20T01:12:53;15.20;99.90
21340;DHT22;10828;47.064;15.422;2023-05-20T01:15:21;15.20;99.90
21340;DHT22;10828;47.064;15.422;2023-05-20T01:17:51;15.10;99.90
21340;DHT22;10828;47.064;15.422;2023-05-20T01:20:19;15.10;99.90
21340;DHT22;10828;47.064;15.422;2023-05-20T01:22:53;15.20;99.90
21340;DHT22;10828;47.064;15.422;2023-05-20T01:25:18;15.10;99.90
21340;DHT22;10828;47.064;15.422;2023-05-20T01:27:44;15.10;99.90
21340;DHT22;10828;47.064;15.422;2023-05-20T01:30:11;15.10;99.90
21340;DHT22;10828;47.064;15.422;2023-05-20T01:33:08;15.10;99.90
21340;DHT22;10828;47.064;15.422;2023-05-20T01:35:35;15.10;99.90
21340;DHT22;10828;47.064;15.422;2023-05-20T01:38:07;15.10;99.90
21340;DHT22;10828;47.064;15.422;2023-05-20T01:40:33;15.10;99.90
21340;DHT22;10828;47.064;15.422;2023-05-20T01:43:00;15.10;99.90
21340;DHT22;10828;47.064;15.422;2023-05-20T01:45:27;15.00;99.90
21340;DHT22;10828;47.064;15.422;2023-05-20T01:47:52;15.00;99.90
21340;DHT22;10828;47.064;15.422;2023-05-20T01:50:19;15.10;99.90
21340;DHT22;10828;47.064;15.422;2023-05-20T01:52:45;15.20;99.90
21340;DHT22;10828;47.064;15.422;2023-05-20T01:55:10;15.20;99.90
21340;DHT22;10828;47.064;15.422;2023-05-20T01:57:36;15.10;99.90
21340;DHT22;10828;47.064;15.422;2023-05-20T02:00:02;15.10;99.90
21340;DHT22;10828;47.064;15.422;2023-05-20T02:02:28;15.10;99.90
21340;DHT22;10828;47.064;15.422;2023-05-20T02:04:53;15.10;99.90
21340;DHT22;10828;47.064;15.422;2023-05-20T02:07:19;15.10;99.90
21340;DHT22;10828;47.064;15.422;2023-05-20T02:09:45;15.10;99.90
21340;DHT22;10828;47.064;15.422;2023-05-20T02:12:11;15.10;99.90
21340;DHT22;10828;47.064;15.422;2023-05-20T02:14:45;15.10;99.90
21340;DHT22;10828;47.064;15.422;2023-05-20T02:17:11;15.10;99.90
21340;DHT22;10828;47.064;15.422;2023-05-20T02:19:38;15.10;99.90
21340;DHT22;10828;47.064;15.422;2023-05-20T02:22:05;15.00;99.90
21340;DHT22;10828;47.064;15.422;2023-05-20T02:24:31;15.00;99.90
21340;DHT22;10828;47.064;15.422;2023-05-20T02:26:56;15.00;99.90
21340;DHT22;10828;47.064;15.422;2023-05-20T02:29:24;14.90;99.90
21340;DHT22;10828;47.064;15.422;2023-05-20T02:31:50;15.00;99.90
21340;DHT22;10828;47.064;15.422;2023-05-20T02:34:17;14.90;99.90
21340;DHT22;10828;47.064;15.422;2023-05-20T02:36:43;14.70;99.90
21340;DHT22;10828;47.064;15.422;2023-05-20T02:39:08;14.70;99.90
21340;DHT22;10828;47.064;15.422;2023-05-20T02:41:34;14.60;99.90
21340;DHT22;10828;47.064;15.422;2023-05-20T02:44:00;14.60;99.90
21340;DHT22;10828;47.064;15.422;2023-05-20T02:46:26;14.70;99.90
21340;DHT22;10828;47.064;15.422;2023-05-20T02:48:51;14.60;99.90
21340;DHT22;10828;47.064;15.422;2023-05-20T02:51:17;14.60;99.90
21340;DHT22;10828;47.064;15.422;2023-05-20T02:53:43;14.60;99.90
21340;DHT22;10828;47.064;15.422;2023-05-20T02:56:09;14.70;99.90
21340;DHT22;10828;47.064;15.422;2023-05-20T02:58:35;14.70;99.90
21340;DHT22;10828;47.064;15.422;2023-05-20T03:01:02;14.80;99.90
21340;DHT22;10828;47.064;15.422;2023-05-20T03:03:28;14.70;99.90
21340;DHT22;10828;47.064;15.422;2023-05-20T03:05:54;14.60;99.90
21340;DHT22;10828;47.064;15.422;2023-05-20T03:08:21;14.60;99.90
21340;DHT22;10828;47.064;15.422;2023-05-20T03:10:47;14.60;99.90
21340;DHT22;10828;47.064;15.422;2023-05-20T03:13:13;14.70;99.90
21340;DHT22;10828;47.064;15.422;2023-05-20T03:15:42;14.70;99.90
21340;DHT22;10828;47.064;15.422;2023-05-20T03:18:12;14.70;99.90
21340;DHT22;10828;47.064;15.422;2023-05-20T03:20:39;14.80;99.90
21340;DHT22;10828;47.064;15.422;2023-05-20T03:23:07;14.80;99.90
21340;DHT22;10828;47.064;15.422;2023-05-20T03:25:36;14.80;99.90
21340;DHT22;10828;47.064;15.422;2023-05-20T03:28:01;14.80;99.90
21340;DHT22;10828;47.064;15.422;2023-05-20T03:30:27;14.80;99.90
21340;DHT22;10828;47.064;15.422;2023-05-20T03:32:58;14.80;99.90
21340;DHT22;10828;47.064;15.422;2023-05-20T03:35:24;14.80;99.90
21340;DHT22;10828;47.064;15.422;2023-05-20T03:37:50;14.80;99.90
21340;DHT22;10828;47.064;15.422;2023-05-20T03:40:19;14.80;99.90
21340;DHT22;10828;47.064;15.422;2023-05-20T03:42:46;14.80;99.90
21340;DHT22;10828;47.064;15.422;2023-05-20T03:45:12;14.90;99.90
21340;DHT22;10828;47.064;15.422;2023-05-20T03:47:38;15.00;99.90
21340;DHT22;10828;47.064;15.422;2023-05-20T03:50:03;15.10;99.90
21340;DHT22;10828;47.064;15.422;2023-05-20T03:52:30;15.10;99.90
21340;DHT22;10828;47.064;15.422;2023-05-20T03:54:56;15.00;99.90
21340;DHT22;10828;47.064;15.422;2023-05-20T03:57:21;15.00;99.90
21340;DHT22;10828;47.064;15.422;2023-05-20T03:59:47;15.10;99.90
21340;DHT22;10828;47.064;15.422;2023-05-20T04:02:14;15.10;99.90
21340;DHT22;10828;47.064;15.422;2023-05-20T04:04:40;15.10;99.90
21340;DHT22;10828;47.064;15.422;2023-05-20T04:07:08;15.10;99.90
21340;DHT22;10828;47.064;15.422;2023-05-20T04:09:33;15.10;99.90
21340;DHT22;10828;47.064;15.422;2023-05-20T04:11:59;15.10;99.90
21340;DHT22;10828;47.064;15.422;2023-05-20T04:14:25;15.10;99.90
21340;DHT22;10828;47.064;15.422;2023-05-20T04:16:50;15.00;99.90
21340;DHT22;10828;47.064;15.422;2023-05-20T04:19:16;15.10;99.90
21340;DHT22;10828;47.064;15.422;2023-05-20T04:21:45;15.10;99.90
21340;DHT22;10828;47.064;15.422;2023-05-20T04:24:11;15.10;99.90
21340;DHT22;10828;47.064;15.422;2023-05-20T04:26:37;15.10;99.90
21340;DHT22;10828;47.064;15.422;2023-05-20T04:29:03;15.10;99.90
21340;DHT22;10828;47.064;15.422;2023-05-20T04:31:32;15.10;99.90
21340;DHT22;10828;47.064;15.422;2023-05-20T04:33:57;15.20;99.90
21340;DHT22;10828;47.064;15.422;2023-05-20T04:36:23;15.20;99.90
21340;DHT22;10828;47.064;15.422;2023-05-20T04:38:57;15.30;99.90
21340;DHT22;10828;47.064;15.422;2023-05-20T04:41:22;15.30;99.90
21340;DHT22;10828;47.064;15.422;2023-05-20T04:43:48;15.40;99.90
21340;DHT22;10828;47.064;15.422;2023-05-20T04:46:14;15.40;99.90
21340;DHT22;10828;47.064;15.422;2023-05-20T04:48:40;15.40;99.90
21340;DHT22;10828;47.064;15.422;2023-05-20T04:51:06;15.50;99.90
21340;DHT22;10828;47.064;15.422;2023-05-20T04:53:33;15.50;99.90
21340;DHT22;10828;47.064;15.422;2023-05-20T04:56:01;15.60;99.90
21340;DHT22;10828;47.064;15.422;2023-05-20T04:58:27;15.50;99.90
21340;DHT22;10828;47.064;15.422;2023-05-20T05:00:54;15.60;99.90
21340;DHT22;10828;47.064;15.422;2023-05-20T05:03:21;15.60;99.90
21340;DHT22;10828;47.064;15.422;2023-05-20T05:05:49;15.60;99.90
21340;DHT22;10828;47.064;15.422;2023-05-20T05:08:15;15.70;99.90
21340;DHT22;10828;47.064;15.422;2023-05-20T05:10:41;15.70;99.90
21340;DHT22;10828;47.064;15.422;2023-05-20T05:13:07;15.70;99.90
21340;DHT22;10828;47.064;15.422;2023-05-20T05:15:32;15.80;99.90
21340;DHT22;10828;47.064;15.422;2023-05-20T05:17:58;15.90;99.90
21340;DHT22;10828;47.064;15.422;2023-05-20T05:20:24;15.90;99.90
21340;DHT22;10828;47.064;15.422;2023-05-20T05:22:49;16.00;99.90
21340;DHT22;10828;47.064;15.422;2023-05-20T05:25:15;16.00;99.90
21340;DHT22;10828;47.064;15.422;2023-05-20T05:27:41;16.00;99.90
21340;DHT22;10828;47.064;15.422;2023-05-20T05:30:09;15.90;99.90
21340;DHT22;10828;47.064;15.422;2023-05-20T05:32:36;16.00;99.90
21340;DHT22;10828;47.064;15.422;2023-05-20T05:35:03;16.00;99.90
21340;DHT22;10828;47.064;15.422;2023-05-20T05:37:29;16.00;99.90
21340;DHT22;10828;47.064;15.422;2023-05-20T05:39:55;15.90;99.90
21340;DHT22;10828;47.064;15.422;2023-05-20T05:42:22;16.00;99.90
21340;DHT22;10828;47.064;15.422;2023-05-20T05:44:49;15.90;99.90
21340;DHT22;10828;47.064;15.422;2023-05-20T05:47:16;15.90;99.90
21340;DHT22;10828;47.064;15.422;2023-05-20T05:49:41;16.00;99.90
21340;DHT22;10828;47.064;15.422;2023-05-20T05:52:07;16.00;99.90
21340;DHT22;10828;47.064;15.422;2023-05-20T05:54:33;15.90;99.90
21340;DHT22;10828;47.064;15.422;2023-05-20T05:56:58;15.90;99.90
21340;DHT22;10828;47.064;15.422;2023-05-20T05:59:25;15.90;99.90
21340;DHT22;10828;47.064;15.422;2023-05-20T06:01:51;15.90;99.90
21340;DHT22;10828;47.064;15.422;2023-05-20T06:04:16;16.00;99.90
21340;DHT22;10828;47.064;15.422;2023-05-20T06:06:42;16.10;99.90
21340;DHT22;10828;47.064;15.422;2023-05-20T06:09:07;16.10;99.90
21340;DHT22;10828;47.064;15.422;2023-05-20T06:11:33;16.10;99.90
21340;DHT22;10828;47.064;15.422;2023-05-20T06:13:59;16.10;99.90
21340;DHT22;10828;47.064;15.422;2023-05-20T06:16:25;16.20;99.90
21340;DHT22;10828;47.064;15.422;2023-05-20T06:18:58;16.30;99.90
21340;DHT22;10828;47.064;15.422;2023-05-20T06:21:23;16.40;99.90
21340;DHT22;10828;47.064;15.422;2023-05-20T06:45:04;16.70;99.90
21340;DHT22;10828;47.064;15.422;2023-05-20T06:48:09;16.80;99.90
21340;DHT22;10828;47.064;15.422;2023-05-20T06:50:36;16.80;99.90
21340;DHT22;10828;47.064;15.422;2023-05-20T06:53:03;16.80;99.90
21340;DHT22;10828;47.064;15.422;2023-05-20T06:55:29;17.00;99.90
21340;DHT22;10828;47.064;15.422;2023-05-20T06:57:55;17.10;99.90
21340;DHT22;10828;47.064;15.422;2023-05-20T07:00:24;17.30;99.90
21340;DHT22;10828;47.064;15.422;2023-05-20T07:02:53;17.30;99.90
21340;DHT22;10828;47.064;15.422;2023-05-20T07:05:18;17.40;99.90
21340;DHT22;10828;47.064;15.422;2023-05-20T07:07:44;17.50;99.90
21340;DHT22;10828;47.064;15.422;2023-05-20T07:10:11;17.50;99.90
21340;DHT22;10828;47.064;15.422;2023-05-20T07:12:39;17.50;99.90
21340;DHT22;10828;47.064;15.422;2023-05-20T07:15:09;17.50;99.90
21340;DHT22;10828;47.064;15.422;2023-05-20T07:17:35;17.50;99.90
21340;DHT22;10828;47.064;15.422;2023-05-20T07:20:39;17.50;99.90
21340;DHT22;10828;47.064;15.422;2023-05-20T07:23:05;17.60;99.90
21340;DHT22;10828;47.064;15.422;2023-05-20T07:25:32;17.80;99.90
21340;DHT22;10828;47.064;15.422;2023-05-20T07:27:57;17.90;99.90
21340;DHT22;10828;47.064;15.422;2023-05-20T07:30:26;17.90;99.90
21340;DHT22;10828;47.064;15.422;2023-05-20T07:32:51;17.90;99.90
21340;DHT22;10828;47.064;15.422;2023-05-20T07:35:19;17.90;99.90
21340;DHT22;10828;47.064;15.422;2023-05-20T07:37:45;17.90;99.90
21340;DHT22;10828;47.064;15.422;2023-05-20T07:40:11;17.90;99.90
21340;DHT22;10828;47.064;15.422;2023-05-20T07:42:37;18.00;99.90
21340;DHT22;10828;47.064;15.422;2023-05-20T07:45:08;18.10;99.90
21340;DHT22;10828;47.064;15.422;2023-05-20T07:47:34;18.20;99.90
21340;DHT22;10828;47.064;15.422;2023-05-20T07:50:00;18.20;99.90
21340;DHT22;10828;47.064;15.422;2023-05-20T07:52:25;18.20;99.90
21340;DHT22;10828;47.064;15.422;2023-05-20T07:54:51;18.20;99.90
21340;DHT22;10828;47.064;15.422;2023-05-20T07:57:17;18.30;99.90
21340;DHT22;10828;47.064;15.422;2023-05-20T07:59:44;18.30;99.90
21340;DHT22;10828;47.064;15.422;2023-05-20T08:02:19;18.40;99.90
21340;DHT22;10828;47.064;15.422;2023-05-20T08:04:45;18.40;99.90
21340;DHT22;10828;47.064;15.422;2023-05-20T08:07:14;18.50;99.90
21340;DHT22;10828;47.064;15.422;2023-05-20T08:09:40;18.50;99.90
21340;DHT22;10828;47.064;15.422;2023-05-20T08:12:08;18.50;99.90
21340;DHT22;10828;47.064;15.422;2023-05-20T08:14:35;18.50;99.90
21340;DHT22;10828;47.064;15.422;2023-05-20T08:17:01;18.60;99.90
21340;DHT22;10828;47.064;15.422;2023-05-20T08:19:27;18.60;99.90
21340;DHT22;10828;47.064;15.422;2023-05-20T08:21:53;18.60;99.90
21340;DHT22;10828;47.064;15.422;2023-05-20T08:24:20;18.70;99.90
21340;DHT22;10828;47.064;15.422;2023-05-20T08:26:46;18.70;99.90
